Mauston, WI

11:17 PM CDT on September 23, 2014 (GMT -0500)
Baraboo Wisconsin Dells | Change Station
CLOSE
Current Station
Airport
Location: Baraboo,
Elevation: 978 ft
Nearby Weather Stations

Elev 978 ft 43.52 °N, 89.77 °W | Updated 22 minutes ago

Partly Cloudy
Partly Cloudy
54 °F
Feels Like 54 °F
N
0
Wind Variable Wind from North

Today
High -- | Low -- °F
--% Chance of Precip.
Yesterday
High -- | Low -- °F
Precip. -- in
6:48 AM 6:55 PM
Waning Crescent, 0% visible
Pressure 30.27 in
Visibility 10.0 miles
Clouds Clear
Dew Point 48 °F
Humidity 80%
Rainfall 0.00 in
Snow Depth Not available.
UV 0 out of 12
Pollen 3.50 out of 12
Air Quality Not available.
Flu Activity Not available.
METAR KDLL 240355Z AUTO 00000KT 10SM CLR 12/09 A3027 RMK AO2 T01220089

More Conditions Fewer Conditions

Pressure 30.27 in
Visibility 10.0 miles
Clouds Clear
Dew Point 48 °F
Humidity 80%
Rainfall 0.00 in
Snow Depth Not available.
UV 0 out of 12
Pollen 3.50 out of 12
Air Quality Not available.
Flu Activity Not available.
METAR KDLL 240355Z AUTO 00000KT 10SM CLR 12/09 A3027 RMK AO2 T01220089

More Conditions Fewer Conditions

10-Day Weather Forecast

Almanac

Astronomy

Sep. 23, 2014 Rise Set
Actual Time 6:48 AM CDT 6:55 PM CDT
Civil Twilight 6:19 AM CDT 7:24 PM CDT
Nautical Twilight 5:46 AM CDT 7:58 PM CDT
Astronomical Twilight 5:11 AM CDT 8:32 PM CDT
Moon 6:12 AM CDT (9/23) 6:34 PM CDT (9/23)
Length of Visible Light 13h 04m
Length of Day
12h 07m
Tomorrow will be 2m 59s shorter.
Waning Crescent, 0% of the Moon is Illuminated
Sep 24
Waning Crescent
Sep 24
New
Oct 1
First Quarter
Oct 8
Full
Oct 15
Last Quarter

Today's Extremes

State Highs State Lows

Community

WunderPhotos

Upload Photos

1,755,890 photos uploaded!

WunderBlogs® & News

Nearby

Snow Depth

Station Depth Elevation
No new snow has been reported.

Earthquake Activity

City Distance Mag. Time & Date
No recent earthquake activity has been reported nearby.
Minimum magnitude displayed is 2.5.

Coastal Water Temperatures

Place Temperature
No Stations Reporting

Nearby Weather Stations